createdAt,value
2022-10-11T00:02:03.583Z,66.10
2022-10-11T00:04:30.336Z,65.60
2022-10-11T00:06:56.906Z,65.40
2022-10-11T00:09:23.569Z,65.89
2022-10-11T00:11:50.264Z,66.35
2022-10-11T00:14:16.907Z,67.55
2022-10-11T00:16:44.558Z,67.90
2022-10-11T00:19:11.635Z,68.57
2022-10-11T00:21:38.257Z,69.35
2022-10-11T00:24:22.987Z,67.99
2022-10-11T00:26:49.583Z,68.52
2022-10-11T00:29:16.297Z,68.07
2022-10-11T00:31:42.875Z,70.64
2022-10-11T00:34:12.193Z,73.29
2022-10-11T00:36:38.985Z,73.39
2022-10-11T00:39:05.910Z,73.53
2022-10-11T00:41:32.673Z,72.86
2022-10-11T00:44:10.680Z,71.92
2022-10-11T00:46:37.838Z,71.38
2022-10-11T00:49:19.581Z,71.61
2022-10-11T00:51:51.644Z,70.26
2022-10-11T00:54:23.390Z,70.21
2022-10-11T00:57:03.245Z,69.88
2022-10-11T00:59:34.917Z,69.14
2022-10-11T01:02:01.770Z,67.37
2022-10-11T01:04:28.647Z,66.34
2022-10-11T01:06:56.034Z,66.98
2022-10-11T01:09:22.784Z,67.04
2022-10-11T01:11:52.238Z,66.85
2022-10-11T01:14:33.565Z,67.23
2022-10-11T01:17:09.140Z,67.05
2022-10-11T01:19:35.671Z,66.71
2022-10-11T01:22:46.719Z,66.25
2022-10-11T01:25:20.994Z,67.21
2022-10-11T01:28:02.158Z,72.98
2022-10-11T01:30:34.496Z,76.81
2022-10-11T01:33:17.053Z,79.07
2022-10-11T01:35:48.833Z,79.88
2022-10-11T01:38:35.816Z,82.38
2022-10-11T01:41:18.736Z,83.73
2022-10-11T01:43:46.382Z,84.72
2022-10-11T01:46:13.678Z,86.37
2022-10-11T01:48:51.537Z,87.17
2022-10-11T01:51:22.968Z,85.13
2022-10-11T01:54:07.482Z,83.63
2022-10-11T01:57:01.662Z,81.94
2022-10-11T01:59:41.012Z,81.58
2022-10-11T02:02:38.100Z,82.62
2022-10-11T02:05:21.044Z,81.21
2022-10-11T02:08:09.376Z,82.06
2022-10-11T02:10:50.146Z,81.72
2022-10-11T02:13:38.766Z,81.09
2022-10-11T02:16:11.105Z,80.59
2022-10-11T02:18:47.080Z,80.83
2022-10-11T02:21:18.389Z,80.89
2022-10-11T02:23:53.645Z,80.10
2022-10-11T02:26:22.003Z,79.48
2022-10-11T02:28:51.310Z,78.88
2022-10-11T02:31:19.496Z,77.12
2022-10-11T02:33:56.865Z,76.05
2022-10-11T02:36:31.296Z,77.50
2022-10-11T02:39:04.377Z,78.15
2022-10-11T02:41:39.729Z,79.25
2022-10-11T02:44:32.518Z,76.89
2022-10-11T02:47:02.381Z,75.71
2022-10-11T02:49:31.731Z,75.41
2022-10-11T02:51:59.452Z,76.53
2022-10-11T02:54:26.464Z,76.17
2022-10-11T02:56:53.442Z,74.66
2022-10-11T02:59:20.119Z,74.55
2022-10-11T03:01:46.919Z,74.46
2022-10-11T03:04:14.091Z,74.89
2022-10-11T03:06:43.436Z,74.66
2022-10-11T03:09:10.038Z,77.97
2022-10-11T03:11:36.778Z,80.13
2022-10-11T03:14:03.440Z,81.11
2022-10-11T03:16:29.968Z,81.52
2022-10-11T03:18:56.495Z,82.18
2022-10-11T03:21:25.192Z,82.15
2022-10-11T03:23:51.749Z,83.77
2022-10-11T03:26:18.358Z,83.26
2022-10-11T03:28:45.171Z,84.00
2022-10-11T03:31:12.191Z,82.81
2022-10-11T03:33:38.984Z,82.50
2022-10-11T03:36:06.174Z,82.37
2022-10-11T03:38:33.587Z,82.53
2022-10-11T03:41:01.297Z,84.37
2022-10-11T03:43:28.035Z,84.59
2022-10-11T03:45:54.636Z,85.04
2022-10-11T03:48:21.202Z,86.23
2022-10-11T03:50:48.889Z,87.02
2022-10-11T03:53:15.561Z,85.70
2022-10-11T03:55:42.150Z,85.90
2022-10-11T03:58:09.340Z,88.02
2022-10-11T04:00:36.700Z,87.88
2022-10-11T04:03:06.470Z,87.96
2022-10-11T04:05:33.260Z,87.86
2022-10-11T04:07:59.808Z,87.84
2022-10-11T04:10:26.345Z,88.20
2022-10-11T04:12:52.937Z,87.49
2022-10-11T04:15:19.621Z,88.09
2022-10-11T04:17:46.261Z,88.57
2022-10-11T04:20:12.845Z,89.07
2022-10-11T04:22:39.445Z,88.13
2022-10-11T04:25:07.157Z,88.31
2022-10-11T04:27:34.010Z,88.80
2022-10-11T04:30:00.781Z,89.37
2022-10-11T04:32:27.845Z,88.24
2022-10-11T04:34:54.460Z,88.01
2022-10-11T04:37:21.003Z,87.53
2022-10-11T04:39:47.549Z,85.62
2022-10-11T04:42:14.128Z,85.79
2022-10-11T04:44:40.626Z,87.25
2022-10-11T04:47:07.165Z,86.20
2022-10-11T04:49:33.724Z,85.94
2022-10-11T04:52:00.486Z,86.48
2022-10-11T04:54:27.117Z,86.83
2022-10-11T04:56:53.761Z,88.03
2022-10-11T04:59:20.436Z,86.13
2022-10-11T05:01:47.231Z,86.11
2022-10-11T05:04:13.837Z,85.49
2022-10-11T05:06:40.472Z,85.54
2022-10-11T05:09:07.150Z,86.20
2022-10-11T05:11:33.741Z,87.93
2022-10-11T05:14:00.425Z,88.71
2022-10-11T05:16:27.295Z,90.34
2022-10-11T05:18:53.867Z,89.36
2022-10-11T05:21:25.837Z,88.91
2022-10-11T05:23:53.850Z,89.22
2022-10-11T05:26:20.936Z,89.33
2022-10-11T05:28:48.142Z,89.93
2022-10-11T05:31:15.660Z,89.42
2022-10-11T05:33:42.918Z,88.95
2022-10-11T05:36:10.503Z,89.69
2022-10-11T05:38:38.295Z,89.33
2022-10-11T05:41:05.833Z,88.04
2022-10-11T05:43:32.747Z,88.35
2022-10-11T05:45:59.688Z,86.88
2022-10-11T05:48:28.738Z,86.07
2022-10-11T05:51:03.052Z,87.57
2022-10-11T05:53:30.122Z,87.10
2022-10-11T05:55:56.884Z,87.69
2022-10-11T05:58:23.679Z,89.77
2022-10-11T06:00:50.346Z,90.53
2022-10-11T06:03:17.155Z,92.51
2022-10-11T06:05:43.743Z,92.49
2022-10-11T06:08:10.820Z,90.12
2022-10-11T06:10:38.435Z,89.85
2022-10-11T06:13:05.734Z,90.17
2022-10-11T06:15:32.777Z,91.06
2022-10-11T06:17:59.407Z,91.19
2022-10-11T06:20:26.984Z,91.17
2022-10-11T06:22:53.855Z,93.14
2022-10-11T06:25:20.536Z,91.88
2022-10-11T06:27:47.232Z,92.16
2022-10-11T06:30:14.756Z,94.46
2022-10-11T06:32:41.313Z,93.57
2022-10-11T06:35:08.276Z,95.97
2022-10-11T06:37:34.861Z,93.27
2022-10-11T06:40:01.495Z,92.99
2022-10-11T06:42:28.035Z,94.71
2022-10-11T06:44:54.651Z,97.23
2022-10-11T06:47:21.176Z,99.60
2022-10-11T06:49:50.411Z,98.79
2022-10-11T06:52:16.948Z,99.28
2022-10-11T06:54:45.044Z,97.92
2022-10-11T06:57:12.083Z,96.74
2022-10-11T06:59:38.733Z,96.90
2022-10-11T07:02:05.315Z,96.94
2022-10-11T07:04:33.796Z,96.67
2022-10-11T07:07:00.459Z,93.42
2022-10-11T07:09:27.033Z,92.89
2022-10-11T07:11:53.536Z,94.10
2022-10-11T07:14:20.101Z,96.78
2022-10-11T07:16:46.683Z,98.64
2022-10-11T07:19:13.464Z,97.46
2022-10-11T07:21:40.010Z,96.36
2022-10-11T07:24:06.934Z,97.07
2022-10-11T07:26:38.853Z,99.26
2022-10-11T07:29:08.101Z,99.44
2022-10-11T07:31:37.210Z,99.29
2022-10-11T07:34:03.856Z,97.55
2022-10-11T07:36:30.504Z,92.13
2022-10-11T07:38:57.039Z,91.65
2022-10-11T07:41:23.545Z,93.29
2022-10-11T07:43:51.028Z,93.42
2022-10-11T07:46:18.363Z,93.95
2022-10-11T07:48:45.030Z,92.37
2022-10-11T07:51:18.050Z,94.15
2022-10-11T07:53:56.120Z,93.84
2022-10-11T07:56:31.499Z,93.91
2022-10-11T07:59:00.814Z,92.72
2022-10-11T08:01:28.379Z,92.28
2022-10-11T08:03:57.004Z,92.44
2022-10-11T08:06:29.220Z,91.17
2022-10-11T08:08:57.071Z,91.16
2022-10-11T08:11:31.585Z,90.86
2022-10-11T08:13:58.919Z,89.80
2022-10-11T08:16:25.751Z,88.81
2022-10-11T08:18:54.417Z,86.57
2022-10-11T08:21:21.177Z,87.56
2022-10-11T08:23:47.892Z,88.94
2022-10-11T08:26:14.820Z,90.77
2022-10-11T08:28:41.462Z,90.75
2022-10-11T08:31:10.096Z,91.10
2022-10-11T08:33:36.795Z,90.45
2022-10-11T08:36:06.051Z,89.68
2022-10-11T08:38:34.233Z,90.94
2022-10-11T08:41:02.034Z,91.50
2022-10-11T08:43:56.571Z,90.76
2022-10-11T08:46:28.440Z,90.66
2022-10-11T08:48:55.491Z,88.69
2022-10-11T08:51:30.749Z,87.15
2022-10-11T08:54:07.569Z,86.65
2022-10-11T08:56:37.345Z,86.01
2022-10-11T08:59:12.594Z,84.75
2022-10-11T09:01:53.297Z,85.22
2022-10-11T09:04:20.132Z,85.51
2022-10-11T09:07:11.776Z,82.16
2022-10-11T09:09:59.996Z,79.86
2022-10-11T09:13:00.093Z,79.26
2022-10-11T09:15:48.201Z,77.71
2022-10-11T09:18:33.368Z,77.60
2022-10-11T09:21:15.165Z,79.52
2022-10-11T09:24:47.348Z,79.83
2022-10-11T09:27:57.213Z,78.87
2022-10-11T09:30:19.154Z,79.50
2022-10-11T09:33:11.533Z,79.34
2022-10-11T09:35:42.805Z,79.50
2022-10-11T09:38:32.698Z,79.72
2022-10-11T09:41:09.261Z,80.53
2022-10-11T09:43:36.049Z,79.93
2022-10-11T09:46:03.080Z,80.35
2022-10-11T09:48:41.378Z,81.12
2022-10-11T09:51:28.883Z,80.43
2022-10-11T09:54:01.169Z,80.48
2022-10-11T09:56:33.711Z,80.52
2022-10-11T09:59:18.796Z,80.18
2022-10-11T10:01:45.396Z,77.91
2022-10-11T10:04:16.938Z,78.81
2022-10-11T10:06:43.573Z,78.89
2022-10-11T10:09:33.225Z,78.67
2022-10-11T10:12:12.136Z,78.67
2022-10-11T10:14:54.379Z,80.24
2022-10-11T10:17:24.010Z,80.08
2022-10-11T10:19:54.734Z,80.43
2022-10-11T10:22:22.891Z,80.65
2022-10-11T10:24:51.382Z,81.49
2022-10-11T10:27:29.795Z,81.22
2022-10-11T10:30:00.237Z,79.98
2022-10-11T10:32:56.376Z,80.72
2022-10-11T10:35:30.421Z,80.38
2022-10-11T10:38:26.190Z,80.31
2022-10-11T10:40:58.136Z,79.82
2022-10-11T10:43:33.990Z,79.89
2022-10-11T10:46:18.845Z,81.10
2022-10-11T10:52:26.149Z,83.93
2022-10-11T10:55:12.752Z,82.88
2022-10-11T10:58:03.130Z,82.24
2022-10-11T11:00:41.773Z,80.88
2022-10-11T11:03:24.631Z,79.30
2022-10-11T11:06:06.558Z,78.78
2022-10-11T11:08:42.584Z,77.96
2022-10-11T11:11:36.011Z,77.90
2022-10-11T11:14:19.119Z,77.32
2022-10-11T11:17:15.414Z,76.71
2022-10-11T11:19:44.572Z,76.44
2022-10-11T11:22:35.629Z,76.09
2022-10-11T11:25:14.878Z,76.48
2022-10-11T11:28:10.216Z,75.96
2022-10-11T11:30:52.488Z,76.93
2022-10-11T11:33:51.382Z,76.74
2022-10-11T11:36:27.617Z,76.27
2022-10-11T11:38:59.765Z,76.57
2022-10-11T11:41:31.057Z,75.59
2022-10-11T11:44:31.344Z,74.39
2022-10-11T11:47:12.515Z,74.32
2022-10-11T11:52:20.315Z,74.98
2022-10-11T11:55:03.916Z,74.95
2022-10-11T11:57:52.253Z,75.52
2022-10-11T12:00:25.837Z,75.83
2022-10-11T12:03:11.353Z,76.90
2022-10-11T12:05:37.969Z,76.98
2022-10-11T12:08:24.400Z,76.98
2022-10-11T12:10:50.858Z,76.61
2022-10-11T12:13:37.199Z,76.42
2022-10-11T12:16:03.669Z,76.83
2022-10-11T12:18:31.948Z,75.84
2022-10-11T12:21:21.889Z,75.60
2022-10-11T12:23:53.824Z,75.14
2022-10-11T12:26:29.842Z,74.79
2022-10-11T12:29:02.429Z,74.61
2022-10-11T12:31:36.087Z,74.64
2022-10-11T12:34:08.592Z,74.69
2022-10-11T12:36:38.281Z,75.34
2022-10-11T12:39:20.416Z,74.92
2022-10-11T12:41:50.246Z,74.72
2022-10-11T12:44:22.796Z,74.21
2022-10-11T12:46:55.072Z,74.79
2022-10-11T12:49:21.691Z,74.99
2022-10-11T12:52:20.616Z,74.40
2022-10-11T12:55:25.563Z,74.17
2022-10-11T12:57:59.184Z,74.30
2022-10-11T13:00:30.009Z,73.86
2022-10-11T13:03:04.771Z,74.16
2022-10-11T13:05:35.929Z,73.33
2022-10-11T13:08:05.716Z,72.46
2022-10-11T13:10:42.484Z,72.23
2022-10-11T13:13:27.276Z,73.25
2022-10-11T13:15:56.162Z,72.86
2022-10-11T13:18:25.135Z,72.42
2022-10-11T13:20:52.027Z,72.79
2022-10-11T13:23:38.192Z,72.84
2022-10-11T13:26:05.047Z,72.33
2022-10-11T13:28:36.301Z,72.18
2022-10-11T13:31:04.641Z,72.16
2022-10-11T13:33:35.659Z,72.65
2022-10-11T13:36:06.152Z,71.31
2022-10-11T13:38:36.196Z,72.36
2022-10-11T13:41:09.084Z,71.70
2022-10-11T13:43:36.800Z,71.94
2022-10-11T13:46:05.142Z,71.90
2022-10-11T13:48:32.390Z,72.48
2022-10-11T13:51:14.013Z,72.63
2022-10-11T13:54:04.417Z,72.86
2022-10-11T13:56:52.315Z,72.86
2022-10-11T13:59:22.219Z,72.34
2022-10-11T14:01:52.007Z,73.02
2022-10-11T14:04:18.865Z,73.14
2022-10-11T14:06:51.360Z,73.38
2022-10-11T14:09:26.463Z,73.09
2022-10-11T14:11:53.948Z,72.57
2022-10-11T14:14:34.185Z,72.50
2022-10-11T14:17:15.354Z,72.30
2022-10-11T14:19:43.872Z,72.14
2022-10-11T14:22:14.981Z,71.98
2022-10-11T14:24:42.280Z,71.52
2022-10-11T14:27:17.525Z,71.77
2022-10-11T14:29:55.634Z,71.51
2022-10-11T14:32:34.250Z,71.66
2022-10-11T14:35:01.233Z,71.81
2022-10-11T14:37:27.766Z,72.35
2022-10-11T14:39:54.472Z,72.89
2022-10-11T14:42:21.091Z,73.28
2022-10-11T14:44:47.622Z,73.53
2022-10-11T14:47:16.833Z,74.49
2022-10-11T14:49:43.392Z,74.85
2022-10-11T14:52:13.762Z,74.92
2022-10-11T14:54:40.916Z,75.58
2022-10-11T14:57:07.550Z,76.44
2022-10-11T14:59:37.079Z,76.89
2022-10-11T15:02:06.144Z,77.20
2022-10-11T15:04:33.124Z,77.75
2022-10-11T15:07:00.063Z,78.14
2022-10-11T15:09:26.620Z,78.01
2022-10-11T15:11:54.866Z,77.89
2022-10-11T15:14:25.292Z,77.93
2022-10-11T15:16:52.643Z,78.02
2022-10-11T15:19:22.538Z,78.67
2022-10-11T15:21:49.516Z,78.61
2022-10-11T15:24:16.819Z,78.59
2022-10-11T15:26:44.109Z,78.99
2022-10-11T15:29:11.836Z,79.17
2022-10-11T15:31:39.488Z,79.86
2022-10-11T15:34:06.121Z,80.17
2022-10-11T15:36:32.699Z,79.97
2022-10-11T15:38:59.328Z,79.90
2022-10-11T15:41:28.038Z,80.56
2022-10-11T15:43:54.618Z,80.80
2022-10-11T15:46:23.300Z,80.49
2022-10-11T15:48:51.736Z,80.67
2022-10-11T15:51:18.998Z,80.57
2022-10-11T15:53:45.691Z,80.69
2022-10-11T15:56:18.996Z,80.78
2022-10-11T15:58:45.961Z,81.36
2022-10-11T16:01:16.151Z,81.65
2022-10-11T16:03:43.566Z,81.67
2022-10-11T16:06:10.888Z,81.64
2022-10-11T16:08:38.335Z,81.91
2022-10-11T16:11:06.771Z,81.87
2022-10-11T16:13:33.835Z,82.12
2022-10-11T16:16:02.358Z,82.27
2022-10-11T16:18:34.902Z,82.48
2022-10-11T16:21:08.296Z,83.05
2022-10-11T16:23:35.368Z,83.54
2022-10-11T16:26:08.934Z,83.78
2022-10-11T16:28:36.116Z,84.18
2022-10-11T16:31:10.292Z,84.70
2022-10-11T16:33:45.963Z,84.96
2022-10-11T16:36:36.673Z,85.35
2022-10-11T16:39:12.015Z,86.06
2022-10-11T16:41:38.785Z,86.98
2022-10-11T16:44:05.824Z,87.59
2022-10-11T16:46:33.276Z,88.40
2022-10-11T16:49:00.102Z,88.88
2022-10-11T16:51:27.006Z,89.32
2022-10-11T16:53:53.592Z,89.68
2022-10-11T16:56:24.144Z,89.60
2022-10-11T16:58:53.060Z,88.82
2022-10-11T17:01:20.277Z,89.42
2022-10-11T17:03:47.065Z,90.45
2022-10-11T17:06:13.596Z,91.28
2022-10-11T17:08:40.178Z,91.79
2022-10-11T17:11:06.859Z,91.70
2022-10-11T17:13:33.594Z,91.45
2022-10-11T17:16:00.385Z,91.57
2022-10-11T17:18:27.159Z,91.92
2022-10-11T17:21:03.043Z,91.31
2022-10-11T17:23:29.709Z,91.69
2022-10-11T17:25:56.257Z,91.67
2022-10-11T17:28:22.981Z,91.78
2022-10-11T17:30:57.965Z,92.05
2022-10-11T17:33:26.415Z,92.37
2022-10-11T17:35:54.634Z,92.37
2022-10-11T17:38:22.438Z,92.33
2022-10-11T17:41:02.125Z,92.72
2022-10-11T17:43:28.963Z,92.88
2022-10-11T17:46:00.484Z,93.35
2022-10-11T17:48:28.279Z,93.92
2022-10-11T17:50:55.077Z,93.75
2022-10-11T17:53:21.911Z,93.18
2022-10-11T17:55:54.184Z,93.55
2022-10-11T17:58:20.721Z,93.92
2022-10-11T18:00:47.345Z,93.71
2022-10-11T18:03:14.085Z,93.52
2022-10-11T18:05:41.963Z,93.63
2022-10-11T18:08:09.796Z,93.52
2022-10-11T18:10:37.746Z,93.65
2022-10-11T18:13:06.622Z,94.29
2022-10-11T18:15:33.925Z,94.08
2022-10-11T18:18:00.505Z,94.15
2022-10-11T18:20:27.088Z,93.93
2022-10-11T18:22:54.270Z,93.50
2022-10-11T18:25:20.882Z,94.11
2022-10-11T18:27:47.454Z,93.88
2022-10-11T18:30:14.643Z,93.20
2022-10-11T18:32:41.245Z,92.71
2022-10-11T18:35:08.251Z,93.04
2022-10-11T18:37:34.776Z,93.03
2022-10-11T18:40:01.381Z,93.29
2022-10-11T18:42:28.099Z,92.55
2022-10-11T18:44:55.372Z,92.90
2022-10-11T18:47:21.909Z,93.62
2022-10-11T18:49:48.436Z,93.81
2022-10-11T18:52:15.071Z,93.59
2022-10-11T18:54:41.629Z,94.39
2022-10-11T18:57:08.132Z,94.40
2022-10-11T18:59:34.834Z,94.85
2022-10-11T19:02:01.435Z,95.95
2022-10-11T19:04:28.662Z,96.00
2022-10-11T19:06:55.316Z,96.00
2022-10-11T19:09:24.430Z,96.99
2022-10-11T19:11:55.757Z,96.81
2022-10-11T19:14:31.566Z,97.84
2022-10-11T19:16:58.367Z,98.11
2022-10-11T19:19:27.450Z,98.67
2022-10-11T19:21:54.217Z,98.77
2022-10-11T19:24:23.828Z,98.92
2022-10-11T19:26:51.617Z,99.16
2022-10-11T19:29:21.986Z,99.60
2022-10-11T19:31:54.573Z,99.50
2022-10-11T19:34:23.516Z,100.00
2022-10-11T19:36:50.859Z,100.00
2022-10-11T19:39:18.393Z,100.00
2022-10-11T19:41:45.397Z,100.00
2022-10-11T19:44:13.316Z,100.00
2022-10-11T19:46:55.935Z,100.00
2022-10-11T19:49:25.259Z,100.00
2022-10-11T19:51:53.149Z,100.00
2022-10-11T19:54:19.914Z,100.00
2022-10-11T19:56:46.974Z,100.00
2022-10-11T19:59:14.640Z,100.00
2022-10-11T20:01:42.532Z,100.00
2022-10-11T20:04:22.963Z,100.00
2022-10-11T20:06:58.158Z,100.00
2022-10-11T20:09:29.500Z,100.00
2022-10-11T20:11:57.217Z,100.00
2022-10-11T20:14:24.032Z,100.00
2022-10-11T20:16:50.850Z,100.00
2022-10-11T20:19:17.923Z,100.00
2022-10-11T20:21:45.216Z,100.00
2022-10-11T20:24:12.085Z,100.00
2022-10-11T20:26:39.364Z,100.00
2022-10-11T20:29:07.660Z,100.00
2022-10-11T20:31:38.272Z,100.00
2022-10-11T20:34:07.365Z,100.00
2022-10-11T20:36:36.167Z,100.00
2022-10-11T20:39:04.677Z,100.00
2022-10-11T20:41:34.128Z,100.00
2022-10-11T20:44:02.081Z,100.00
2022-10-11T20:46:31.587Z,100.00
2022-10-11T20:49:02.057Z,100.00
2022-10-11T20:51:31.047Z,100.00
2022-10-11T20:53:58.782Z,100.00
2022-10-11T20:56:25.748Z,100.00
2022-10-11T20:58:56.740Z,100.00
2022-10-11T21:01:33.122Z,100.00
2022-10-11T21:04:00.995Z,100.00
2022-10-11T21:06:29.468Z,100.00
2022-10-11T21:08:56.758Z,100.00
2022-10-11T21:11:41.279Z,100.00
2022-10-11T21:14:07.908Z,100.00
2022-10-11T21:16:34.946Z,100.00
2022-10-11T21:19:02.360Z,100.00
2022-10-11T21:21:29.925Z,100.00
2022-10-11T21:23:58.864Z,100.00
2022-10-11T21:26:26.022Z,100.00
2022-10-11T21:28:52.664Z,100.00
2022-10-11T21:31:21.319Z,100.00
2022-10-11T21:33:48.173Z,100.00
2022-10-11T21:36:18.569Z,100.00
2022-10-11T21:38:45.321Z,100.00
2022-10-11T21:41:16.322Z,100.00
2022-10-11T21:43:43.130Z,100.00
2022-10-11T21:46:15.933Z,100.00
2022-10-11T21:48:42.503Z,100.00
2022-10-11T21:51:26.670Z,100.00
2022-10-11T21:53:55.176Z,100.00
2022-10-11T21:56:21.912Z,100.00
2022-10-11T21:58:49.936Z,100.00
2022-10-11T22:01:17.817Z,100.00
2022-10-11T22:03:44.900Z,100.00
2022-10-11T22:06:12.228Z,100.00
2022-10-11T22:08:39.490Z,100.00
2022-10-11T22:11:06.783Z,100.00
2022-10-11T22:13:34.181Z,100.00
2022-10-11T22:16:09.282Z,100.00
2022-10-11T22:18:36.341Z,100.00
2022-10-11T22:21:08.452Z,100.00
2022-10-11T22:23:35.379Z,100.00
2022-10-11T22:26:04.484Z,100.00
2022-10-11T22:28:31.387Z,100.00
2022-10-11T22:30:58.121Z,100.00
2022-10-11T22:33:24.889Z,100.00
2022-10-11T22:35:59.296Z,100.00
2022-10-11T22:38:26.432Z,100.00
2022-10-11T22:40:53.685Z,100.00
2022-10-11T22:43:20.641Z,100.00
2022-10-11T22:45:47.302Z,100.00
2022-10-11T22:48:13.796Z,100.00
2022-10-11T22:50:40.403Z,100.00
2022-10-11T22:53:07.948Z,100.00
2022-10-11T22:55:35.161Z,100.00
2022-10-11T22:58:01.672Z,100.00
2022-10-11T23:00:28.239Z,100.00
2022-10-11T23:02:54.813Z,100.00
2022-10-11T23:05:21.520Z,100.00
2022-10-11T23:07:48.340Z,100.00
2022-10-11T23:10:15.705Z,100.00
2022-10-11T23:12:42.380Z,100.00
2022-10-11T23:15:10.213Z,100.00
2022-10-11T23:17:36.913Z,100.00
2022-10-11T23:20:04.947Z,100.00
2022-10-11T23:22:31.496Z,100.00
2022-10-11T23:24:58.104Z,100.00
2022-10-11T23:27:24.674Z,100.00
2022-10-11T23:29:51.201Z,100.00
2022-10-11T23:32:17.952Z,100.00
2022-10-11T23:34:44.503Z,100.00
2022-10-11T23:37:11.092Z,100.00
2022-10-11T23:39:37.610Z,100.00
2022-10-11T23:42:04.324Z,100.00
2022-10-11T23:44:30.897Z,100.00
2022-10-11T23:46:57.435Z,100.00
2022-10-11T23:49:24.022Z,100.00
2022-10-11T23:51:50.584Z,100.00
2022-10-11T23:54:17.070Z,100.00
2022-10-11T23:56:43.595Z,100.00
2022-10-11T23:59:10.133Z,100.00
